createdAt,value
2019-05-05T00:00:05.514Z,8.30
2019-05-05T00:02:38.897Z,8.30
2019-05-05T00:05:08.819Z,8.30
2019-05-05T00:07:37.803Z,8.20
2019-05-05T00:10:09.688Z,8.30
2019-05-05T00:12:40.093Z,8.40
2019-05-05T00:15:26.969Z,8.50
2019-05-05T00:17:55.921Z,8.40
2019-05-05T00:20:25.102Z,8.20
2019-05-05T00:22:54.615Z,8.30
2019-05-05T00:25:24.926Z,8.40
2019-05-05T00:27:54.572Z,8.40
2019-05-05T00:30:24.944Z,8.40
2019-05-05T00:32:54.890Z,8.40
2019-05-05T00:35:25.230Z,8.40
2019-05-05T00:37:54.482Z,8.60
2019-05-05T00:40:24.783Z,8.50
2019-05-05T00:42:55.739Z,8.30
2019-05-05T00:45:26.063Z,8.30
2019-05-05T00:48:15.277Z,8.30
2019-05-05T00:50:44.960Z,8.40
2019-05-05T00:53:14.595Z,8.40
2019-05-05T00:55:44.252Z,8.30
2019-05-05T00:58:14.319Z,8.40
2019-05-05T01:00:59.936Z,8.40
2019-05-05T01:03:28.820Z,8.20
2019-05-05T01:06:01.716Z,8.20
2019-05-05T01:08:30.596Z,8.30
2019-05-05T01:10:59.379Z,8.40
2019-05-05T01:13:28.196Z,8.60
2019-05-05T01:15:57.057Z,8.60
2019-05-05T01:18:25.966Z,8.70
2019-05-05T01:20:55.283Z,8.60
2019-05-05T01:23:24.500Z,8.70
2019-05-05T01:25:54.393Z,8.60
2019-05-05T01:28:24.922Z,8.60
2019-05-05T01:30:55.627Z,8.40
2019-05-05T01:33:28.774Z,8.40
2019-05-05T01:35:57.626Z,8.50
2019-05-05T01:38:30.898Z,8.70
2019-05-05T01:41:16.631Z,8.80
2019-05-05T01:43:45.470Z,9.00
2019-05-05T01:46:14.476Z,9.20
2019-05-05T01:48:44.558Z,9.10
2019-05-05T01:51:14.330Z,9.00
2019-05-05T01:53:44.279Z,8.90
2019-05-05T01:56:15.248Z,9.00
2019-05-05T01:58:44.257Z,9.00
2019-05-05T02:01:15.164Z,8.70
2019-05-05T02:03:44.270Z,8.80
2019-05-05T02:06:14.227Z,8.70
2019-05-05T02:08:45.280Z,8.60
2019-05-05T02:11:15.573Z,8.50
2019-05-05T02:13:45.089Z,8.50
2019-05-05T02:16:15.049Z,8.60
2019-05-05T02:18:45.044Z,8.50
2019-05-05T02:21:14.311Z,8.40
2019-05-05T02:23:45.162Z,8.20
2019-05-05T02:26:15.443Z,8.40
2019-05-05T02:28:45.927Z,8.20
2019-05-05T02:31:19.352Z,8.10
2019-05-05T02:33:48.518Z,8.20
2019-05-05T02:36:17.387Z,8.10
2019-05-05T02:38:46.536Z,8.30
2019-05-05T02:41:16.385Z,8.10
2019-05-05T02:43:45.922Z,8.30
2019-05-05T02:46:16.670Z,8.40
2019-05-05T02:48:48.522Z,8.30
2019-05-05T02:51:17.757Z,8.30
2019-05-05T02:53:49.695Z,8.20
2019-05-05T02:56:23.734Z,8.10
2019-05-05T02:58:55.587Z,8.10
2019-05-05T03:01:29.816Z,8.00
2019-05-05T03:03:58.989Z,8.00
2019-05-05T03:06:27.840Z,7.80
2019-05-05T03:08:57.960Z,7.80
2019-05-05T03:11:28.498Z,7.70
2019-05-05T03:13:59.184Z,7.80
2019-05-05T03:16:30.905Z,7.90
2019-05-05T03:18:59.719Z,8.00
2019-05-05T03:21:28.590Z,8.00
2019-05-05T03:23:57.502Z,7.90
2019-05-05T03:26:26.498Z,7.80
2019-05-05T03:28:57.166Z,7.80
2019-05-05T03:31:26.549Z,7.60
2019-05-05T03:33:56.122Z,7.60
2019-05-05T03:36:27.096Z,7.70
2019-05-05T03:38:56.327Z,7.80
2019-05-05T03:41:44.195Z,7.80
2019-05-05T03:44:20.903Z,7.70
2019-05-05T03:46:50.441Z,7.70
2019-05-05T03:49:19.487Z,7.70
2019-05-05T03:51:48.398Z,7.80
2019-05-05T03:54:17.447Z,7.90
2019-05-05T03:56:46.756Z,8.00
2019-05-05T03:59:15.619Z,8.00
2019-05-05T04:01:46.166Z,7.90
2019-05-05T04:04:25.852Z,8.00
2019-05-05T04:06:56.044Z,8.10
2019-05-05T04:09:25.340Z,8.40
2019-05-05T04:11:54.209Z,8.40
2019-05-05T04:14:24.995Z,8.40
2019-05-05T04:17:10.422Z,8.40
2019-05-05T04:19:49.943Z,8.30
2019-05-05T04:22:18.782Z,8.20
2019-05-05T04:24:47.554Z,8.00
2019-05-05T04:27:16.392Z,8.10
2019-05-05T04:29:45.215Z,8.10
2019-05-05T04:32:14.278Z,8.20
2019-05-05T04:34:43.864Z,8.30
2019-05-05T04:37:14.959Z,8.20
2019-05-05T04:39:45.433Z,8.30
2019-05-05T04:42:14.323Z,8.40
2019-05-05T04:44:44.959Z,8.40
2019-05-05T04:47:15.186Z,8.30
2019-05-05T04:49:45.603Z,8.60
2019-05-05T04:52:16.063Z,8.40
2019-05-05T04:54:46.475Z,8.50
2019-05-05T04:57:15.288Z,8.90
2019-05-05T04:59:44.478Z,9.10
2019-05-05T05:02:15.079Z,9.60
2019-05-05T05:04:48.316Z,10.00
2019-05-05T05:07:18.193Z,10.50
2019-05-05T05:09:46.974Z,10.70
2019-05-05T05:12:15.799Z,10.50
2019-05-05T05:14:44.576Z,10.20
2019-05-05T05:17:15.042Z,10.10
2019-05-05T05:19:43.814Z,9.90
2019-05-05T05:22:13.674Z,9.90
2019-05-05T05:24:44.568Z,10.10
2019-05-05T05:27:13.871Z,10.30
2019-05-05T05:29:43.779Z,10.60
2019-05-05T05:32:12.766Z,10.90
2019-05-05T05:34:43.560Z,10.90
2019-05-05T05:37:13.501Z,10.80
2019-05-05T05:40:00.581Z,10.60
2019-05-05T05:42:29.386Z,10.70
2019-05-05T05:45:16.096Z,10.70
2019-05-05T05:47:58.702Z,10.50
2019-05-05T05:50:29.173Z,10.30
2019-05-05T05:52:57.967Z,10.20
2019-05-05T05:55:26.759Z,10.30
2019-05-05T05:57:55.647Z,10.10
2019-05-05T06:00:24.441Z,10.00
2019-05-05T06:02:54.590Z,9.90
2019-05-05T06:05:23.900Z,9.80
2019-05-05T06:07:54.472Z,9.70
2019-05-05T06:10:27.048Z,9.70
2019-05-05T06:12:54.684Z,9.80
2019-05-05T06:15:24.424Z,10.00
2019-05-05T06:17:53.989Z,10.00
2019-05-05T06:20:23.862Z,10.20
2019-05-05T06:22:53.551Z,10.10
2019-05-05T06:25:26.258Z,10.10
2019-05-05T06:27:54.052Z,10.10
2019-05-05T06:30:24.437Z,10.20
2019-05-05T06:32:54.360Z,10.20
2019-05-05T06:35:24.444Z,10.40
2019-05-05T06:37:54.287Z,10.60
2019-05-05T06:40:28.143Z,10.80
2019-05-05T06:42:58.697Z,10.60
2019-05-05T06:45:29.075Z,10.70
2019-05-05T06:47:57.877Z,10.80
2019-05-05T06:50:26.757Z,10.80
2019-05-05T06:52:55.670Z,10.90
2019-05-05T06:55:24.563Z,10.90
2019-05-05T06:57:53.877Z,11.00
2019-05-05T07:00:24.156Z,11.00
2019-05-05T07:02:54.063Z,11.10
2019-05-05T07:05:23.524Z,11.30
2019-05-05T07:07:53.723Z,11.50
2019-05-05T07:10:24.463Z,11.80
2019-05-05T07:12:54.358Z,11.90
2019-05-05T07:15:23.748Z,12.20
2019-05-05T07:17:53.564Z,13.00
2019-05-05T07:20:24.133Z,14.20
2019-05-05T07:23:01.479Z,16.70
2019-05-05T07:25:24.232Z,19.40
2019-05-05T07:27:54.663Z,21.20
2019-05-05T07:30:24.277Z,21.40
2019-05-05T07:32:53.733Z,20.20
2019-05-05T07:35:29.833Z,19.20
2019-05-05T07:37:58.731Z,18.30
2019-05-05T07:40:27.543Z,17.50
2019-05-05T07:42:56.370Z,17.00
2019-05-05T07:45:25.873Z,16.40
2019-05-05T07:47:54.801Z,15.90
2019-05-05T07:50:29.565Z,15.50
2019-05-05T07:52:54.664Z,15.10
2019-05-05T07:55:23.851Z,14.80
2019-05-05T07:57:54.096Z,14.60
2019-05-05T08:00:24.065Z,14.50
2019-05-05T08:02:54.437Z,14.60
2019-05-05T08:05:24.600Z,14.60
2019-05-05T08:07:53.995Z,14.80
2019-05-05T08:10:24.162Z,15.00
2019-05-05T08:12:54.190Z,14.70
2019-05-05T08:15:24.611Z,15.30
2019-05-05T08:17:57.855Z,16.80
2019-05-05T08:20:28.380Z,18.80
2019-05-05T08:22:57.219Z,18.20
2019-05-05T08:25:45.217Z,17.50
2019-05-05T08:28:17.834Z,17.00
2019-05-05T08:30:57.230Z,16.80
2019-05-05T08:33:26.011Z,17.00
2019-05-05T08:35:54.888Z,17.90
2019-05-05T08:38:24.220Z,18.10
2019-05-05T08:40:54.303Z,18.20
2019-05-05T08:43:24.150Z,17.40
2019-05-05T08:45:55.295Z,17.60
2019-05-05T08:48:26.826Z,17.70
2019-05-05T08:50:55.681Z,17.90
2019-05-05T08:53:24.572Z,18.20
2019-05-05T08:55:54.995Z,18.10
2019-05-05T08:58:23.886Z,17.70
2019-05-05T09:00:53.669Z,16.50
2019-05-05T09:03:24.303Z,16.00
2019-05-05T09:05:54.265Z,15.80
2019-05-05T09:08:24.356Z,15.60
2019-05-05T09:10:55.236Z,14.30
2019-05-05T09:13:25.207Z,12.70
2019-05-05T09:15:54.469Z,11.40
2019-05-05T09:18:24.595Z,10.90
2019-05-05T09:20:53.804Z,9.90
2019-05-05T09:23:24.021Z,9.50
2019-05-05T09:25:54.829Z,9.40
2019-05-05T09:28:25.287Z,9.20
2019-05-05T09:30:54.117Z,9.30
2019-05-05T09:33:25.780Z,9.30
2019-05-05T09:35:55.057Z,9.20
2019-05-05T09:38:23.994Z,9.30
2019-05-05T09:40:54.451Z,9.20
2019-05-05T09:43:24.210Z,8.90
2019-05-05T09:45:54.470Z,8.50
2019-05-05T09:48:24.305Z,8.50
2019-05-05T09:50:54.071Z,9.20
2019-05-05T09:53:23.760Z,9.80
2019-05-05T09:55:54.756Z,11.00
2019-05-05T09:58:26.662Z,12.30
2019-05-05T10:00:55.909Z,13.50
2019-05-05T10:03:24.877Z,14.80
2019-05-05T10:05:54.155Z,17.10
2019-05-05T10:08:27.755Z,18.60
2019-05-05T10:10:56.680Z,20.80
2019-05-05T10:13:25.462Z,22.80
2019-05-05T10:15:57.291Z,24.90
2019-05-05T10:18:26.174Z,26.20
2019-05-05T10:20:55.020Z,27.80
2019-05-05T10:23:25.494Z,28.60
2019-05-05T10:25:54.448Z,29.10
2019-05-05T10:28:23.874Z,29.80
2019-05-05T10:30:53.858Z,29.80
2019-05-05T10:33:24.672Z,29.60
2019-05-05T10:35:54.153Z,30.00
2019-05-05T10:38:23.559Z,28.80
2019-05-05T10:40:53.703Z,27.90
2019-05-05T10:43:25.575Z,27.70
2019-05-05T10:45:54.741Z,28.30
2019-05-05T10:48:23.683Z,30.00
2019-05-05T10:50:53.723Z,29.60
2019-05-05T10:53:22.558Z,27.30
2019-05-05T10:55:51.443Z,23.80
2019-05-05T10:58:20.221Z,20.30
2019-05-05T11:00:54.490Z,18.20
2019-05-05T11:03:24.911Z,17.10
2019-05-05T11:05:53.928Z,16.30
2019-05-05T11:08:24.127Z,15.70
2019-05-05T11:10:53.055Z,15.40
2019-05-05T11:13:23.876Z,15.00
2019-05-05T11:15:54.508Z,15.20
2019-05-05T11:18:23.767Z,14.80
2019-05-05T11:20:54.876Z,14.30
2019-05-05T11:23:24.946Z,14.30
2019-05-05T11:25:54.517Z,14.00
2019-05-05T11:28:23.647Z,13.60
2019-05-05T11:30:53.732Z,13.80
2019-05-05T11:33:27.041Z,13.70
2019-05-05T11:36:01.743Z,14.30
2019-05-05T11:38:30.571Z,15.20
2019-05-05T11:40:59.399Z,15.60
2019-05-05T11:43:28.190Z,16.00
2019-05-05T11:45:57.025Z,17.10
2019-05-05T11:48:28.003Z,18.00
2019-05-05T11:50:56.926Z,18.50
2019-05-05T11:53:25.716Z,20.10
2019-05-05T11:55:55.070Z,22.40
2019-05-05T11:58:24.926Z,24.50
2019-05-05T12:00:54.675Z,24.70
2019-05-05T12:03:23.791Z,25.00
2019-05-05T12:05:52.592Z,25.60
2019-05-05T12:08:21.414Z,26.10
2019-05-05T12:10:59.531Z,26.00
2019-05-05T12:13:29.688Z,24.20
2019-05-05T12:16:04.615Z,22.20
2019-05-05T12:18:34.310Z,20.20
2019-05-05T12:21:05.212Z,19.20
2019-05-05T12:23:34.344Z,18.40
2019-05-05T12:26:20.266Z,17.60
2019-05-05T12:28:50.741Z,16.90
2019-05-05T12:31:21.209Z,16.80
2019-05-05T12:33:50.036Z,16.70
2019-05-05T12:36:20.335Z,16.30
2019-05-05T12:38:49.185Z,16.00
2019-05-05T12:41:21.020Z,15.80
2019-05-05T12:43:51.259Z,15.70
2019-05-05T12:46:36.885Z,15.60
2019-05-05T12:49:07.404Z,16.40
2019-05-05T12:51:43.521Z,18.10
2019-05-05T12:54:14.592Z,18.70
2019-05-05T12:56:50.397Z,17.10
2019-05-05T12:59:20.853Z,16.40
2019-05-05T13:01:49.814Z,16.40
2019-05-05T13:04:18.648Z,15.60
2019-05-05T13:06:47.426Z,14.80
2019-05-05T13:09:17.100Z,14.50
2019-05-05T13:11:46.000Z,15.20
2019-05-05T13:14:14.836Z,16.30
2019-05-05T13:16:52.518Z,18.00
2019-05-05T13:19:24.049Z,18.60
2019-05-05T13:22:03.652Z,18.30
2019-05-05T13:24:46.425Z,18.10
2019-05-05T13:27:19.612Z,18.80
2019-05-05T13:29:50.761Z,18.00
2019-05-05T13:32:19.606Z,17.10
2019-05-05T13:34:48.499Z,16.60
2019-05-05T13:37:17.291Z,16.70
2019-05-05T13:39:47.572Z,16.40
2019-05-05T13:42:16.357Z,16.40
2019-05-05T13:44:50.216Z,15.80
2019-05-05T13:47:19.207Z,15.60
2019-05-05T13:49:48.322Z,15.10
2019-05-05T13:52:17.152Z,14.80
2019-05-05T13:54:45.884Z,14.60
2019-05-05T13:57:14.717Z,14.60
2019-05-05T13:59:44.493Z,14.60
2019-05-05T14:02:17.836Z,14.20
2019-05-05T14:04:46.703Z,13.80
2019-05-05T14:07:15.534Z,13.40
2019-05-05T14:09:44.317Z,13.30
2019-05-05T14:12:14.659Z,13.70
2019-05-05T14:14:44.072Z,14.20
2019-05-05T14:17:14.745Z,14.20
2019-05-05T14:19:44.582Z,14.20
2019-05-05T14:22:13.482Z,14.10
2019-05-05T14:24:44.461Z,13.90
2019-05-05T14:27:14.504Z,14.00
2019-05-05T14:29:57.508Z,14.00
2019-05-05T14:32:27.914Z,14.20
2019-05-05T14:35:03.856Z,14.30
2019-05-05T14:37:34.124Z,14.00
2019-05-05T14:40:04.737Z,14.10
2019-05-05T14:42:34.193Z,14.00
2019-05-05T14:45:06.554Z,14.00
2019-05-05T14:47:35.451Z,14.10
2019-05-05T14:50:05.575Z,14.10
2019-05-05T14:52:34.369Z,14.00
2019-05-05T14:55:03.895Z,14.00
2019-05-05T14:57:33.593Z,14.10
2019-05-05T15:00:04.534Z,14.20
2019-05-05T15:02:34.817Z,14.30
2019-05-05T15:05:22.102Z,14.40
2019-05-05T15:07:53.662Z,14.60
2019-05-05T15:10:40.618Z,14.80
2019-05-05T15:13:10.367Z,14.80
2019-05-05T15:15:39.214Z,14.60
2019-05-05T15:18:08.069Z,14.60
2019-05-05T15:20:36.872Z,14.60
2019-05-05T15:23:05.712Z,14.80
2019-05-05T15:25:34.483Z,14.50
2019-05-05T15:28:05.205Z,14.20
2019-05-05T15:30:34.107Z,14.20
2019-05-05T15:33:04.513Z,14.10
2019-05-05T15:35:33.980Z,13.90
2019-05-05T15:38:04.491Z,14.00
2019-05-05T15:40:33.837Z,14.00
2019-05-05T15:43:03.802Z,14.10
2019-05-05T15:45:34.089Z,14.00
2019-05-05T15:48:04.617Z,14.00
2019-05-05T15:50:33.661Z,14.10
2019-05-05T15:53:03.835Z,14.20
2019-05-05T15:55:33.982Z,14.20
2019-05-05T15:58:03.622Z,14.10
2019-05-05T16:00:33.778Z,13.90
2019-05-05T16:03:04.259Z,13.80
2019-05-05T16:05:34.506Z,13.80
2019-05-05T16:08:04.509Z,13.80
2019-05-05T16:10:34.749Z,13.80
2019-05-05T16:13:04.467Z,13.70
2019-05-05T16:15:35.040Z,13.50
2019-05-05T16:18:14.764Z,13.40
2019-05-05T16:20:57.162Z,13.60
2019-05-05T16:23:27.630Z,13.60
2019-05-05T16:25:56.454Z,13.60
2019-05-05T16:28:25.409Z,13.60
2019-05-05T16:30:56.245Z,13.50
2019-05-05T16:33:24.784Z,13.30
2019-05-05T16:35:53.653Z,13.50
2019-05-05T16:38:24.025Z,13.50
2019-05-05T16:40:53.753Z,13.60
2019-05-05T16:43:24.687Z,13.60
2019-05-05T16:45:53.770Z,13.60
2019-05-05T16:48:25.215Z,13.60
2019-05-05T16:50:54.179Z,13.50
2019-05-05T16:53:38.605Z,13.40
2019-05-05T16:56:11.213Z,13.40
2019-05-05T16:58:40.100Z,13.30
2019-05-05T17:01:14.423Z,13.40
2019-05-05T17:03:45.654Z,13.50
2019-05-05T17:06:14.165Z,13.50
2019-05-05T17:08:44.453Z,13.40
2019-05-05T17:11:15.051Z,13.30
2019-05-05T17:13:51.705Z,12.90
2019-05-05T17:16:24.778Z,12.90
2019-05-05T17:19:00.749Z,13.00
2019-05-05T17:21:47.519Z,12.90
2019-05-05T17:24:16.414Z,12.70
2019-05-05T17:26:45.231Z,12.80
2019-05-05T17:29:14.609Z,12.90
2019-05-05T17:31:44.360Z,12.60
2019-05-05T17:34:13.707Z,12.50
2019-05-05T17:36:42.770Z,12.50
2019-05-05T17:39:11.592Z,12.50
2019-05-05T17:41:44.797Z,12.50
2019-05-05T17:44:15.449Z,12.40
2019-05-05T17:46:45.916Z,12.20
2019-05-05T17:49:22.918Z,12.20
2019-05-05T17:52:00.599Z,12.10
2019-05-05T17:54:33.905Z,12.20
2019-05-05T17:57:03.569Z,12.10
2019-05-05T17:59:33.791Z,12.00
2019-05-05T18:02:04.756Z,11.80
2019-05-05T18:04:33.765Z,11.60
2019-05-05T18:07:07.137Z,11.50
2019-05-05T18:09:53.983Z,11.60
2019-05-05T18:12:40.857Z,11.60
2019-05-05T18:15:30.695Z,11.60
2019-05-05T18:17:59.545Z,11.70
2019-05-05T18:20:29.955Z,11.60
2019-05-05T18:22:58.762Z,11.60
2019-05-05T18:25:27.593Z,11.60
2019-05-05T18:27:56.474Z,11.40
2019-05-05T18:30:25.338Z,11.40
2019-05-05T18:32:54.211Z,11.40
2019-05-05T18:35:24.260Z,11.20
2019-05-05T18:37:54.425Z,11.00
2019-05-05T18:40:24.138Z,10.90
2019-05-05T18:42:54.354Z,10.90
2019-05-05T18:45:23.768Z,10.80
2019-05-05T18:47:53.839Z,10.90
2019-05-05T18:50:24.369Z,10.90
2019-05-05T18:52:53.873Z,10.90
2019-05-05T18:55:22.846Z,10.80
2019-05-05T18:57:51.702Z,10.90
2019-05-05T19:00:24.732Z,10.80
2019-05-05T19:02:57.846Z,10.60
2019-05-05T19:05:37.588Z,10.50
2019-05-05T19:08:10.531Z,10.50
2019-05-05T19:10:39.371Z,10.50
2019-05-05T19:13:08.268Z,10.60
2019-05-05T19:15:39.330Z,10.60
2019-05-05T19:18:08.160Z,10.60
2019-05-05T19:20:55.315Z,10.50
2019-05-05T19:23:24.173Z,10.50
2019-05-05T19:25:55.845Z,10.60
2019-05-05T19:28:23.611Z,10.30
2019-05-05T19:30:54.804Z,10.20
2019-05-05T19:33:24.599Z,10.10
2019-05-05T19:35:53.915Z,10.00
2019-05-05T19:38:27.184Z,10.00
2019-05-05T19:40:56.442Z,10.00
2019-05-05T19:43:25.454Z,10.20
2019-05-05T19:45:55.230Z,10.20
2019-05-05T19:48:27.117Z,10.10
2019-05-05T19:50:57.611Z,10.10
2019-05-05T19:53:29.494Z,9.90
2019-05-05T19:55:58.448Z,10.00
2019-05-05T19:58:27.431Z,9.90
2019-05-05T20:00:57.867Z,9.80
2019-05-05T20:03:26.815Z,9.70
2019-05-05T20:05:55.702Z,9.70
2019-05-05T20:08:38.998Z,9.70
2019-05-05T20:10:55.037Z,9.80
2019-05-05T20:13:24.445Z,9.80
2019-05-05T20:16:04.506Z,9.60
2019-05-05T20:18:34.283Z,9.70
2019-05-05T20:21:06.894Z,9.70
2019-05-05T20:23:34.126Z,9.80
2019-05-05T20:26:03.979Z,9.80
2019-05-05T20:28:33.852Z,9.80
2019-05-05T20:31:05.584Z,9.90
2019-05-05T20:33:41.709Z,9.80
2019-05-05T20:36:27.153Z,9.70
2019-05-05T20:38:57.535Z,9.80
2019-05-05T20:41:26.312Z,9.70
2019-05-05T20:43:55.177Z,9.50
2019-05-05T20:46:24.257Z,9.60
2019-05-05T20:48:54.514Z,9.50
2019-05-05T20:51:24.266Z,9.50
2019-05-05T20:53:54.200Z,9.30
2019-05-05T20:56:23.344Z,9.30
2019-05-05T20:58:52.236Z,9.40
2019-05-05T21:01:21.070Z,9.40
2019-05-05T21:03:50.134Z,9.40
2019-05-05T21:06:19.007Z,9.50
2019-05-05T21:08:48.029Z,9.30
2019-05-05T21:11:16.823Z,9.20
2019-05-05T21:13:48.448Z,9.20
2019-05-05T21:16:18.313Z,9.20
2019-05-05T21:18:47.128Z,9.20
2019-05-05T21:21:17.526Z,9.30
2019-05-05T21:23:47.942Z,9.20
2019-05-05T21:26:18.409Z,9.30
2019-05-05T21:28:47.181Z,9.20
2019-05-05T21:31:16.027Z,9.40
2019-05-05T21:33:45.297Z,9.30
2019-05-05T21:36:14.724Z,9.30
2019-05-05T21:38:44.028Z,9.20
2019-05-05T21:41:14.530Z,9.10
2019-05-05T21:43:44.996Z,9.10
2019-05-05T21:46:13.817Z,9.00
2019-05-05T21:48:44.766Z,9.00
2019-05-05T21:51:14.794Z,9.00
2019-05-05T21:53:47.379Z,9.20
2019-05-05T21:56:24.816Z,9.00
2019-05-05T21:58:54.590Z,8.80
2019-05-05T22:01:27.022Z,9.00
2019-05-05T22:03:55.713Z,9.00
2019-05-05T22:06:24.626Z,9.00
2019-05-05T22:08:56.374Z,9.10
2019-05-05T22:11:25.189Z,9.10
2019-05-05T22:13:54.249Z,9.20
2019-05-05T22:16:23.295Z,9.10
2019-05-05T22:18:54.017Z,9.00
2019-05-05T22:21:30.818Z,9.20
2019-05-05T22:24:16.114Z,9.20
2019-05-05T22:26:45.474Z,9.10
2019-05-05T22:29:16.990Z,9.10
2019-05-05T22:31:44.824Z,9.00
2019-05-05T22:34:14.587Z,9.00
2019-05-05T22:36:44.811Z,8.70
2019-05-05T22:39:16.438Z,8.70
2019-05-05T22:41:44.770Z,8.70
2019-05-05T22:44:14.054Z,8.80
2019-05-05T22:46:43.115Z,8.80
2019-05-05T22:49:12.048Z,8.80
2019-05-05T22:51:40.915Z,8.90
2019-05-05T22:54:09.758Z,8.60
2019-05-05T22:56:38.527Z,8.50
2019-05-05T22:59:07.407Z,8.50
2019-05-05T23:01:36.287Z,8.60
2019-05-05T23:04:23.992Z,8.80
2019-05-05T23:06:54.598Z,8.80
2019-05-05T23:09:23.350Z,9.00
2019-05-05T23:11:52.169Z,9.00
2019-05-05T23:14:30.367Z,8.90
2019-05-05T23:17:14.793Z,8.80
2019-05-05T23:19:51.156Z,8.80
2019-05-05T23:22:23.942Z,8.70
2019-05-05T23:25:05.791Z,8.70
2019-05-05T23:27:50.648Z,8.70
2019-05-05T23:30:23.766Z,8.60
2019-05-05T23:32:54.627Z,8.60
2019-05-05T23:35:23.934Z,8.70
2019-05-05T23:37:55.070Z,8.70
2019-05-05T23:40:27.966Z,8.60
2019-05-05T23:42:56.843Z,8.60
2019-05-05T23:45:25.637Z,8.50
2019-05-05T23:47:54.857Z,8.60
2019-05-05T23:50:24.482Z,8.60
2019-05-05T23:52:54.406Z,8.70
2019-05-05T23:55:24.193Z,8.60
2019-05-05T23:57:54.755Z,8.50
